Duke Street, Reading, Berkshire, RG1 4RU, United Kingdom

Camera Oscura

Reading Town Centre Webcam

Oscura's Reading Webcam is aimed out of our top floor offices in Duke Street, central Reading town centre, Berkshire. Our camera is facing South West with a view of the Reading Oracle Shopping Centre.

Current weather conditions and forecast for Reading, Berkshire

When Temp Weather Wind Cloud Humidity Rain Snow
Now 9C Partly Cloudy 11mph SSW 84% 92% 0% 0%
18 Feb 09:00 8C Partly Cloudy 8mph SSW 86% 95% 0% 0%
18 Feb 12:00 7C Partly Cloudy 8mph SSW 82% 95% 19% 0%
18 Feb 15:00 7C Partly Cloudy 8mph SSW 99% 95% 0% 0%
18 Feb 18:00 7C Partly Cloudy 8mph SSW 99% 93% 19% 0%
18 Feb 21:00 7C Partly Cloudy 8mph SSW 95% 92% 38% 0%
19 Feb 00:00 9C Intermittent Rain 13mph SSW 99% 85% 38% 0%
19 Feb 03:00 9C Partly Cloudy 13mph SW 100% 81% 19% 0%
19 Feb 06:00 7C Intermittent Rain 6mph SW 94% 92% 57% 0%
19 Feb 09:00 6C Fair 6mph WSW 36% 91% 19% 0%
19 Feb 12:00 4C Fair 8mph WSW 28% 93% 0% 0%
19 Feb 15:00 3C Fair 6mph WSW 28% 94% 0% 0%
19 Feb 18:00 4C Partly Cloudy 6mph WSW 66% 95% 0% 0%
19 Feb 21:00 5C Partly Cloudy 8mph WSW 56% 88% 0% 0%
20 Feb 00:00 8C Partly Cloudy 11mph SW 62% 69% 0% 0%
20 Feb 03:00 9C Partly Cloudy 11mph SW 73% 70% 23% 0%
20 Feb 06:00 6C Cloudy 8mph SSW 99% 84% 0% 0%
20 Feb 09:00 5C Partly Cloudy 8mph SSW 89% 88% 0% 0%
20 Feb 12:00 5C Partly Cloudy 8mph SSW 91% 89% 0% 0%
20 Feb 15:00 5C Partly Cloudy 8mph SSW 73% 92% 0% 0%
20 Feb 19:00 5C Partly Cloudy 11mph SSW 66% 92% 0% 0%
20 Feb 22:00 8C Cloudy 15mph SSW 98% 87% 15% 0%
21 Feb 01:00 10C Cloudy 17mph SW 100% 81% 0% 0%
21 Feb 04:00 9C Cloudy 13mph SW 100% 90% 15% 0%
21 Feb 07:00 9C Cloudy 11mph SW 96% 94% 0% 0%


Oscura provide website development, web server hosting, Internet services and IT Support in Reading and the surrounding area.